Time;durP1;ratioP1;P1;durP2;ratioP2;P2;SDS_P1;SDS_P2;PMS_P1;PMS_P2;Temp;Humidity;BMP_temperature;BMP_pressure;BME280_temperature;BME280_humidity;BME280_pressure;Samples;Min_cycle;Max_cycle;Signal;HPM_P1;HPM_P2
2023/03/03 00:01:14;;;;;;;28.40;14.85;;;;;;;0.43;93.61;102381.75;5068087;28;20024;-83
2023/03/03 00:03:39;;;;;;;31.10;15.75;;;;;;;0.49;93.35;102388.94;5050246;28;20063;-83
2023/03/03 00:06:09;;;;;;;28.75;16.52;;;;;;;0.49;94.43;102382.00;5027749;28;20400;-75
2023/03/03 00:08:35;;;;;;;29.33;16.02;;;;;;;0.56;93.31;102391.00;5063414;28;20119;-75
2023/03/03 00:11:02;;;;;;;29.92;15.25;;;;;;;0.58;92.88;102399.78;5048116;28;20034;-75
2023/03/03 00:13:31;;;;;;;29.33;15.85;;;;;;;0.56;93.63;102398.81;5047361;28;20040;-75
2023/03/03 00:16:15;;;;;;;29.00;15.20;;;;;;;0.58;93.58;102403.25;5051014;28;20131;-75
2023/03/03 00:18:44;;;;;;;35.30;16.92;;;;;;;0.57;93.78;102409.31;5067791;28;20043;-75
2023/03/03 00:21:31;;;;;;;26.83;14.55;;;;;;;0.62;94.12;102404.31;5054152;28;20103;-75
2023/03/03 00:24:22;;;;;;;31.50;16.60;;;;;;;0.66;93.00;102415.75;5046666;28;20072;-75
2023/03/03 00:26:55;;;;;;;27.30;15.33;;;;;;;0.67;94.06;102401.88;5065796;28;20094;-75
2023/03/03 00:29:35;;;;;;;27.50;15.32;;;;;;;0.69;94.39;102405.44;5072051;28;20890;-75
2023/03/03 00:32:20;;;;;;;28.90;15.48;;;;;;;0.70;93.96;102400.31;5053714;28;20111;-73
2023/03/03 00:34:46;;;;;;;26.85;15.15;;;;;;;0.68;93.64;102395.84;5048830;28;20021;-73
2023/03/03 00:37:28;;;;;;;27.20;14.63;;;;;;;0.72;95.27;102398.66;5051395;28;20483;-73
2023/03/03 00:40:01;;;;;;;26.33;14.70;;;;;;;0.74;95.26;102409.16;5051786;28;20434;-74
2023/03/03 00:42:27;;;;;;;26.98;14.52;;;;;;;0.74;94.82;102411.75;5052635;28;20036;-74
2023/03/03 00:44:57;;;;;;;26.05;14.63;;;;;;;0.72;95.20;102406.50;5046725;28;20495;-73
2023/03/03 00:47:31;;;;;;;27.83;15.10;;;;;;;0.73;95.94;102400.44;5065469;28;20039;-73
2023/03/03 00:50:06;;;;;;;29.88;14.95;;;;;;;0.73;96.24;102399.56;5033789;28;20386;-74
2023/03/03 00:52:36;;;;;;;27.23;14.18;;;;;;;0.72;96.31;102401.28;5065738;28;20042;-74
2023/03/03 00:55:03;;;;;;;25.13;13.52;;;;;;;0.74;95.90;102402.25;5069826;28;20081;-74
2023/03/03 00:57:29;;;;;;;26.90;14.80;;;;;;;0.72;96.33;102414.31;5050693;28;20122;-75
2023/03/03 00:59:55;;;;;;;26.02;15.00;;;;;;;0.72;96.30;102405.56;5052870;28;20037;-74
2023/03/03 01:02:20;;;;;;;25.45;15.32;;;;;;;0.74;96.53;102411.75;5031520;28;20501;-75
2023/03/03 01:04:50;;;;;;;24.10;13.77;;;;;;;0.72;95.77;102416.00;5034119;28;20226;-75
2023/03/03 01:07:16;;;;;;;25.52;14.05;;;;;;;0.79;96.38;102415.44;5052256;28;20036;-75
2023/03/03 01:09:42;;;;;;;22.23;13.93;;;;;;;0.78;96.62;102429.31;5048874;28;20039;-75
2023/03/03 01:12:08;;;;;;;25.05;14.75;;;;;;;0.76;96.42;102413.59;5044943;28;20375;-75
2023/03/03 01:14:34;;;;;;;26.48;14.48;;;;;;;0.78;96.44;102417.16;5046863;28;20042;-75
2023/03/03 01:16:59;;;;;;;26.55;15.27;;;;;;;0.80;95.74;102425.06;5060505;28;20031;-75
2023/03/03 01:19:25;;;;;;;23.52;13.57;;;;;;;0.83;96.40;102428.69;5045220;28;20120;-75
2023/03/03 01:21:50;;;;;;;24.02;13.90;;;;;;;0.83;96.02;102426.09;5050469;28;20024;-75
2023/03/03 01:24:16;;;;;;;27.88;15.35;;;;;;;0.83;96.72;102425.19;5042234;28;20029;-75
2023/03/03 01:26:42;;;;;;;25.60;14.20;;;;;;;0.84;96.71;102427.88;5042342;28;20047;-74
2023/03/03 01:29:08;;;;;;;24.80;13.18;;;;;;;0.83;96.58;102420.88;5050854;28;20402;-75
2023/03/03 01:31:34;;;;;;;28.50;15.27;;;;;;;0.82;96.92;102426.03;5034679;28;20039;-75
2023/03/03 01:34:00;;;;;;;26.23;14.05;;;;;;;0.81;96.93;102429.44;5045292;28;20123;-75
2023/03/03 01:36:27;;;;;;;26.30;14.82;;;;;;;0.79;97.17;102431.09;5020316;28;20494;-75
2023/03/03 01:38:53;;;;;;;25.30;13.73;;;;;;;0.82;96.74;102428.66;5054669;28;20392;-75
2023/03/03 01:41:19;;;;;;;24.83;14.32;;;;;;;0.84;97.53;102430.50;5036074;28;20024;-75
2023/03/03 01:43:47;;;;;;;25.13;14.45;;;;;;;0.83;97.22;102422.59;5053419;28;20043;-75
2023/03/03 01:46:25;;;;;;;21.73;12.85;;;;;;;0.90;96.89;102437.69;5041381;28;20040;-75
2023/03/03 01:49:01;;;;;;;31.17;14.48;;;;;;;0.90;96.40;102431.59;5017148;28;20502;-75
2023/03/03 01:51:34;;;;;;;24.48;13.77;;;;;;;0.91;96.50;102431.63;5047454;28;20476;-74
2023/03/03 01:54:03;;;;;;;33.00;15.77;;;;;;;0.89;95.72;102430.69;5019248;28;20473;-75
2023/03/03 01:56:29;;;;;;;24.92;13.65;;;;;;;0.94;95.41;102436.09;5021112;28;20441;-75
2023/03/03 01:58:55;;;;;;;26.90;15.75;;;;;;;0.95;95.10;102435.28;5031269;28;20041;-75
2023/03/03 02:01:25;;;;;;;27.92;15.18;;;;;;;0.92;95.54;102424.72;5045418;28;20111;-75
2023/03/03 02:03:52;;;;;;;30.08;16.13;;;;;;;0.91;95.34;102429.03;5033386;28;20040;-75
2023/03/03 02:06:21;;;;;;;28.38;15.18;;;;;;;0.86;95.56;102434.03;5029196;28;20041;-74
2023/03/03 02:09:13;;;;;;;28.00;14.65;;;;;;;0.84;95.19;102438.31;5043030;28;20032;-75
2023/03/03 02:11:43;;;;;;;31.00;15.52;;;;;;;0.82;95.44;102424.31;5027001;28;20051;-75
2023/03/03 02:14:11;;;;;;;28.17;14.57;;;;;;;0.82;95.13;102432.13;5037792;28;20380;-75
2023/03/03 02:16:42;;;;;;;26.30;14.35;;;;;;;0.83;94.75;102438.25;5003274;28;20041;-75
2023/03/03 02:19:17;;;;;;;25.58;14.48;;;;;;;0.83;94.40;102425.19;5015193;28;20147;-74
2023/03/03 02:21:42;;;;;;;30.65;16.42;;;;;;;0.84;94.55;102433.09;5015462;28;20044;-74
2023/03/03 02:24:25;;;;;;;27.70;15.07;;;;;;;0.81;93.57;102434.66;5031500;28;20032;-74
2023/03/03 02:26:51;;;;;;;28.30;14.95;;;;;;;0.77;93.95;102433.66;5032967;28;20044;-75
2023/03/03 02:29:16;;;;;;;30.27;14.30;;;;;;;0.78;93.83;102443.25;5015155;28;20033;-74
2023/03/03 02:31:42;;;;;;;25.73;15.02;;;;;;;0.75;94.02;102442.25;5014908;28;20034;-74
2023/03/03 02:34:08;;;;;;;28.55;16.23;;;;;;;0.71;94.53;102448.13;5033469;28;20095;-74
2023/03/03 02:36:37;;;;;;;30.75;16.85;;;;;;;0.64;94.50;102431.31;5031179;28;20030;-75
2023/03/03 02:39:17;;;;;;;25.98;14.50;;;;;;;0.70;94.96;102438.53;5032681;28;20470;-75
2023/03/03 02:41:50;;;;;;;29.35;16.58;;;;;;;0.67;94.50;102438.38;5020176;28;20047;-74
2023/03/03 02:44:18;;;;;;;30.08;15.18;;;;;;;0.62;94.42;102430.38;5040086;28;20040;-75
2023/03/03 02:46:47;;;;;;;27.80;14.40;;;;;;;0.62;94.37;102427.78;5041615;28;20025;-75
2023/03/03 02:49:15;;;;;;;30.42;15.55;;;;;;;0.60;94.96;102419.88;5039541;28;20036;-74
2023/03/03 02:51:41;;;;;;;27.77;15.45;;;;;;;0.59;94.80;102438.03;5039678;28;20049;-74
2023/03/03 02:54:08;;;;;;;35.75;16.30;;;;;;;0.59;95.32;102432.81;5045535;28;20051;-75
2023/03/03 02:56:35;;;;;;;33.25;16.67;;;;;;;0.59;94.98;102435.44;5034482;28;20124;-74
2023/03/03 02:59:00;;;;;;;30.08;14.88;;;;;;;0.54;95.04;102430.00;5049354;28;20132;-74
2023/03/03 03:01:30;;;;;;;33.35;16.15;;;;;;;0.48;95.10;102434.09;5038942;28;20017;-75
2023/03/03 03:03:57;;;;;;;27.08;15.18;;;;;;;0.48;94.84;102431.47;5020790;28;20033;-75
2023/03/03 03:06:24;;;;;;;28.35;14.07;;;;;;;0.49;94.81;102434.13;5058431;28;20039;-75
2023/03/03 03:08:50;;;;;;;31.90;16.15;;;;;;;0.46;95.43;102438.31;5058697;28;20064;-75
2023/03/03 03:11:15;;;;;;;32.90;14.98;;;;;;;0.41;95.61;102438.13;5032346;28;20048;-75
2023/03/03 03:13:41;;;;;;;26.10;14.63;;;;;;;0.37;95.65;102436.19;5034228;28;20047;-75
2023/03/03 03:16:07;;;;;;;24.33;13.52;;;;;;;0.32;95.58;102438.59;5031531;28;20127;-75
2023/03/03 03:18:33;;;;;;;27.83;15.07;;;;;;;0.28;95.68;102441.88;5025720;28;20582;-75
2023/03/03 03:21:11;;;;;;;27.80;15.07;;;;;;;0.24;95.80;102442.56;5039385;28;20024;-75
2023/03/03 03:23:38;;;;;;;30.75;15.55;;;;;;;0.24;96.09;102452.09;5026074;28;20044;-75
2023/03/03 03:26:05;;;;;;;24.35;14.13;;;;;;;0.20;95.72;102444.13;5028064;28;20079;-75
2023/03/03 03:28:31;;;;;;;26.98;15.25;;;;;;;0.25;96.25;102446.03;5000712;28;20061;-75
2023/03/03 03:30:57;;;;;;;27.38;14.52;;;;;;;0.27;96.25;102452.22;5026181;28;20060;-75
2023/03/03 03:33:23;;;;;;;34.13;16.38;;;;;;;0.22;96.44;102449.41;5065761;28;20067;-74
2023/03/03 03:35:50;;;;;;;27.77;14.02;;;;;;;0.21;96.60;102456.34;5017812;28;20029;-75
2023/03/03 03:38:16;;;;;;;25.08;13.60;;;;;;;0.20;96.17;102451.06;5047269;28;20142;-75
2023/03/03 03:40:42;;;;;;;26.77;14.52;;;;;;;0.20;96.07;102451.06;5060421;28;20024;-75
2023/03/03 03:43:08;;;;;;;25.67;14.15;;;;;;;0.18;96.27;102447.50;5052813;28;20388;-75
2023/03/03 03:45:34;;;;;;;24.05;13.93;;;;;;;0.19;96.45;102455.38;5057486;28;20387;-75
2023/03/03 03:48:00;;;;;;;24.13;13.25;;;;;;;0.19;95.66;102449.28;5020879;28;20093;-75
2023/03/03 03:50:26;;;;;;;22.15;13.40;;;;;;;0.18;95.78;102440.56;5035000;28;20041;-74
2023/03/03 03:52:52;;;;;;;25.65;13.77;;;;;;;0.19;96.11;102446.66;5052921;28;20075;-75
2023/03/03 03:55:18;;;;;;;24.35;13.63;;;;;;;0.16;95.94;102451.75;5033011;28;20068;-75
2023/03/03 03:57:43;;;;;;;27.48;14.57;;;;;;;0.13;96.29;102449.00;5071426;28;20424;-75
2023/03/03 04:00:10;;;;;;;25.92;14.05;;;;;;;0.10;96.60;102454.03;5032618;28;20020;-75
2023/03/03 04:02:48;;;;;;;26.55;14.38;;;;;;;0.12;96.45;102455.91;5061603;28;20043;-75
2023/03/03 04:05:14;;;;;;;25.70;14.40;;;;;;;0.10;96.84;102456.66;5034825;28;20033;-75
2023/03/03 04:07:40;;;;;;;29.35;14.60;;;;;;;0.11;97.17;102461.94;5038049;28;20024;-75
2023/03/03 04:10:07;;;;;;;29.67;14.82;;;;;;;0.13;96.19;102462.03;5031995;28;20033;-75
2023/03/03 04:12:37;;;;;;;26.52;14.45;;;;;;;0.15;96.92;102460.38;5037556;28;20040;-75
2023/03/03 04:15:08;;;;;;;26.88;14.40;;;;;;;0.17;96.82;102458.72;5034971;28;20029;-75
2023/03/03 04:17:34;;;;;;;23.52;12.88;;;;;;;0.18;96.08;102461.41;5024940;28;20044;-75
2023/03/03 04:20:01;;;;;;;23.42;12.73;;;;;;;0.21;96.21;102468.47;5037533;28;20337;-75
2023/03/03 04:22:28;;;;;;;24.73;13.93;;;;;;;0.20;96.42;102453.69;5020812;28;20056;-75
2023/03/03 04:24:54;;;;;;;28.92;14.30;;;;;;;0.21;96.67;102463.25;5037545;28;20037;-75
2023/03/03 04:27:20;;;;;;;28.25;15.10;;;;;;;0.24;96.48;102455.59;5040141;28;20024;-75
2023/03/03 04:29:46;;;;;;;25.92;13.52;;;;;;;0.28;96.54;102467.94;5021825;28;20677;-75
2023/03/03 04:32:11;;;;;;;26.05;13.98;;;;;;;0.27;96.50;102454.81;5032013;28;20037;-75
2023/03/03 04:34:37;;;;;;;26.70;14.70;;;;;;;0.29;96.43;102459.28;5037174;28;20549;-75
2023/03/03 04:37:02;;;;;;;26.85;14.35;;;;;;;0.34;96.13;102464.72;5020590;28;20037;-75
2023/03/03 04:39:28;;;;;;;29.25;15.15;;;;;;;0.33;96.32;102456.00;5008935;28;20021;-76
2023/03/03 04:41:54;;;;;;;27.67;14.30;;;;;;;0.37;96.46;102463.16;5045931;28;20033;-75
2023/03/03 04:44:21;;;;;;;27.20;14.27;;;;;;;0.38;96.46;102459.72;5018160;28;20446;-75
2023/03/03 04:46:47;;;;;;;27.52;14.25;;;;;;;0.40;96.36;102465.91;5036826;28;20055;-75
2023/03/03 04:49:12;;;;;;;29.02;15.73;;;;;;;0.41;96.62;102469.38;5051749;28;20024;-75
2023/03/03 04:51:40;;;;;;;25.83;13.30;;;;;;;0.45;96.70;102468.72;5043270;28;20047;-75
2023/03/03 04:54:06;;;;;;;28.23;14.68;;;;;;;0.47;96.69;102471.38;5019954;28;20112;-75
2023/03/03 04:56:32;;;;;;;23.58;13.27;;;;;;;0.50;96.05;102471.53;5036684;28;20197;-75
2023/03/03 04:58:58;;;;;;;27.95;14.20;;;;;;;0.50;96.10;102471.53;5005019;28;20066;-75
2023/03/03 05:01:24;;;;;;;31.30;15.57;;;;;;;0.47;95.89;102460.94;5033513;28;20104;-75
2023/03/03 05:03:49;;;;;;;25.50;13.80;;;;;;;0.52;96.25;102468.19;5044656;28;20463;-75
2023/03/03 05:06:17;;;;;;;29.27;15.20;;;;;;;0.50;95.79;102469.81;5041459;28;20032;-75
2023/03/03 05:08:44;;;;;;;30.42;15.20;;;;;;;0.52;96.07;102470.78;5036612;28;20131;-75
2023/03/03 05:11:10;;;;;;;25.92;13.77;;;;;;;0.56;95.40;102469.19;5029560;28;20053;-75
2023/03/03 05:13:35;;;;;;;27.00;13.98;;;;;;;0.53;95.85;102469.06;5067394;28;20105;-75
2023/03/03 05:16:01;;;;;;;28.10;13.23;;;;;;;0.55;95.46;102483.94;5036151;28;20048;-75
2023/03/03 05:18:26;;;;;;;29.10;15.50;;;;;;;0.56;95.57;102475.28;5056005;28;20060;-75
2023/03/03 05:20:53;;;;;;;29.00;15.57;;;;;;;0.59;95.81;102483.28;5065073;28;20044;-75
2023/03/03 05:23:19;;;;;;;30.08;15.32;;;;;;;0.59;95.60;102482.34;5039616;28;20104;-75
2023/03/03 05:25:49;;;;;;;27.45;14.60;;;;;;;0.63;95.75;102479.06;5026675;28;20438;-75
2023/03/03 05:28:16;;;;;;;26.48;13.65;;;;;;;0.63;95.63;102476.47;5067005;28;20041;-75
2023/03/03 05:30:41;;;;;;;27.13;14.82;;;;;;;0.62;95.47;102478.19;5025168;28;20041;-75
2023/03/03 05:33:07;;;;;;;27.05;13.88;;;;;;;0.63;95.46;102473.88;5051140;28;20028;-75
2023/03/03 05:35:33;;;;;;;28.73;16.17;;;;;;;0.66;95.85;102480.94;5049963;28;20032;-75
2023/03/03 05:38:02;;;;;;;32.08;15.73;;;;;;;0.62;96.49;102470.38;5053764;28;20036;-74
2023/03/03 05:40:27;;;;;;;27.35;14.82;;;;;;;0.63;96.32;102479.97;5057553;28;20037;-75
2023/03/03 05:42:53;;;;;;;25.73;13.90;;;;;;;0.63;96.06;102477.34;5041674;28;20039;-75
2023/03/03 05:45:20;;;;;;;29.88;15.02;;;;;;;0.60;95.78;102473.72;5062819;28;20036;-75
2023/03/03 05:47:48;;;;;;;30.48;15.73;;;;;;;0.60;95.84;102482.44;5060639;28;20470;-74
2023/03/03 05:50:15;;;;;;;28.88;14.85;;;;;;;0.63;96.13;102485.19;5045691;28;20033;-75
2023/03/03 05:52:40;;;;;;;27.13;14.57;;;;;;;0.66;95.76;102483.53;5042231;28;20028;-75
2023/03/03 05:55:06;;;;;;;29.83;14.85;;;;;;;0.65;95.71;102485.25;5046206;28;20052;-75
2023/03/03 05:57:32;;;;;;;25.55;12.98;;;;;;;0.63;95.80;102486.91;5051495;28;20037;-74
2023/03/03 05:59:57;;;;;;;30.63;14.15;;;;;;;0.58;95.97;102480.59;5050810;28;20479;-74
2023/03/03 06:02:23;;;;;;;30.45;14.98;;;;;;;0.61;95.73;102480.72;5035544;28;20028;-75
2023/03/03 06:04:48;;;;;;;31.08;15.85;;;;;;;0.59;95.42;102480.66;5045662;28;20044;-75
2023/03/03 06:07:14;;;;;;;28.23;14.20;;;;;;;0.64;95.28;102488.66;5065585;28;20017;-74
2023/03/03 06:09:39;;;;;;;29.75;14.60;;;;;;;0.61;95.57;102486.81;5057768;28;20032;-75
2023/03/03 06:12:05;;;;;;;29.00;14.15;;;;;;;0.66;95.56;102500.06;5045609;28;20036;-74
2023/03/03 06:14:31;;;;;;;30.58;15.27;;;;;;;0.61;95.52;102494.63;5051628;28;20459;-74
2023/03/03 06:16:56;;;;;;;27.35;13.95;;;;;;;0.62;95.50;102499.06;5066447;28;20074;-75
2023/03/03 06:19:22;;;;;;;31.83;14.65;;;;;;;0.62;95.60;102499.06;5036728;28;20392;-74
2023/03/03 06:21:48;;;;;;;26.63;14.98;;;;;;;0.67;95.79;102508.78;5026642;28;20459;-74
2023/03/03 06:24:14;;;;;;;30.60;14.90;;;;;;;0.67;95.61;102511.38;5034321;28;20123;-74
2023/03/03 06:26:40;;;;;;;25.73;14.05;;;;;;;0.69;95.78;102517.56;5034600;28;20364;-74
2023/03/03 06:29:08;;;;;;;26.88;14.20;;;;;;;0.68;95.74;102518.41;5042268;28;20099;-75
2023/03/03 06:31:34;;;;;;;26.23;14.10;;;;;;;0.67;95.17;102520.13;5059378;28;20481;-75
2023/03/03 06:34:00;;;;;;;29.15;14.77;;;;;;;0.68;95.44;102523.63;5063381;28;20029;-75
2023/03/03 06:36:33;;;;;;;29.05;13.77;;;;;;;0.71;95.71;102526.34;5013331;28;20017;-75
2023/03/03 06:38:59;;;;;;;29.35;14.57;;;;;;;0.72;95.44;102523.84;5033920;28;20032;-75
2023/03/03 06:41:25;;;;;;;29.83;14.43;;;;;;;0.73;95.40;102532.53;5061756;28;20041;-75
2023/03/03 06:43:51;;;;;;;22.95;12.20;;;;;;;0.73;95.04;102536.03;5064179;28;20020;-75
2023/03/03 06:46:16;;;;;;;28.55;14.55;;;;;;;0.75;95.40;102543.94;5054240;28;20033;-75
2023/03/03 06:48:44;;;;;;;27.20;13.13;;;;;;;0.72;95.56;102544.69;5050159;28;20483;-75
2023/03/03 06:51:32;;;;;;;26.58;13.55;;;;;;;0.73;95.03;102553.41;5032333;28;20433;-75
2023/03/03 06:54:01;;;;;;;26.80;13.60;;;;;;;0.71;95.40;102550.72;5048670;28;20094;-75
2023/03/03 06:56:28;;;;;;;31.35;12.90;;;;;;;0.74;95.38;102550.88;5052890;28;20078;-75
2023/03/03 06:58:59;;;;;;;27.65;14.18;;;;;;;0.73;95.78;102556.00;5043412;28;20098;-75
2023/03/03 07:01:26;;;;;;;31.40;16.10;;;;;;;0.73;95.48;102550.78;5044529;28;20040;-75
2023/03/03 07:03:51;;;;;;;31.75;13.95;;;;;;;0.78;95.74;102550.16;5053290;28;20048;-75
2023/03/03 07:06:23;;;;;;;28.08;14.38;;;;;;;0.80;95.90;102545.03;5026028;28;20193;-75
2023/03/03 07:08:50;;;;;;;34.40;14.73;;;;;;;0.85;95.63;102557.44;5069997;28;20067;-75
2023/03/03 07:11:19;;;;;;;35.05;16.02;;;;;;;0.86;95.30;102553.13;5047288;28;20029;-75
2023/03/03 07:13:51;;;;;;;29.88;15.32;;;;;;;0.89;95.48;102553.28;5044592;28;20032;-75
2023/03/03 07:16:20;;;;;;;32.13;15.15;;;;;;;0.92;95.33;102556.03;5051587;28;20150;-75
2023/03/03 07:19:04;;;;;;;32.90;14.98;;;;;;;0.91;95.37;102554.22;5067536;28;20017;-75
2023/03/03 07:21:31;;;;;;;32.55;15.02;;;;;;;0.96;95.15;102559.66;5049155;28;20065;-75
2023/03/03 07:23:56;;;;;;;33.17;15.05;;;;;;;0.95;95.05;102555.28;5018765;28;20119;-75
2023/03/03 07:26:31;;;;;;;27.40;13.50;;;;;;;0.98;95.13;102564.09;5050596;28;20032;-75
2023/03/03 07:29:16;;;;;;;28.10;13.82;;;;;;;0.97;95.44;102564.94;5037320;28;20086;-75
2023/03/03 07:31:46;;;;;;;29.77;13.52;;;;;;;0.98;95.42;102565.84;5067608;28;20070;-75
2023/03/03 07:34:26;;;;;;;30.27;15.43;;;;;;;1.00;94.71;102575.50;5060374;28;20028;-75
2023/03/03 07:37:00;;;;;;;33.33;15.38;;;;;;;1.01;95.01;102573.78;5067884;28;20036;-75
2023/03/03 07:39:37;;;;;;;30.67;15.35;;;;;;;1.04;95.01;102574.84;5065690;28;20051;-75
2023/03/03 07:42:37;;;;;;;38.53;18.67;;;;;;;1.08;95.29;102576.75;5058529;28;20115;-75
2023/03/03 07:45:33;;;;;;;28.10;13.60;;;;;;;1.13;94.31;102581.28;5039850;28;20043;-75
2023/03/03 07:48:35;;;;;;;36.83;16.90;;;;;;;1.16;94.42;102590.13;5042545;28;20111;-75
2023/03/03 07:51:05;;;;;;;37.85;16.33;;;;;;;1.17;94.83;102585.81;5026241;28;20152;-74
2023/03/03 07:53:33;;;;;;;29.00;14.57;;;;;;;1.19;95.32;102592.91;5068987;28;20118;-75
2023/03/03 07:56:00;;;;;;;29.85;14.90;;;;;;;1.16;95.12;102584.03;5062160;28;20047;-75
2023/03/03 07:58:46;;;;;;;37.20;15.93;;;;;;;1.21;95.25;102599.09;5068087;28;20115;-74
2023/03/03 08:01:34;;;;;;;30.45;15.20;;;;;;;1.22;94.98;102594.75;5047817;28;20529;-74
2023/03/03 08:03:59;;;;;;;26.38;13.00;;;;;;;1.22;95.48;102598.25;5068099;28;20471;-75
2023/03/03 08:06:34;;;;;;;30.65;13.10;;;;;;;1.22;94.90;102600.84;5048325;28;20074;-75
2023/03/03 08:09:09;;;;;;;30.60;13.07;;;;;;;1.21;95.19;102600.78;5068072;28;20020;-76
2023/03/03 08:11:36;;;;;;;28.17;13.18;;;;;;;1.20;94.57;102602.50;5035618;28;20482;-75
2023/03/03 08:14:10;;;;;;;25.40;13.13;;;;;;;1.20;94.76;102601.59;5061596;28;20020;-75
2023/03/03 08:16:37;;;;;;;25.55;12.85;;;;;;;1.25;94.50;102605.31;5039152;28;20098;-75
2023/03/03 08:19:05;;;;;;;25.05;11.80;;;;;;;1.29;94.38;102610.75;5053516;28;20025;-75
2023/03/03 08:21:32;;;;;;;25.48;13.00;;;;;;;1.30;94.07;102614.25;5059374;28;20072;-76
2023/03/03 08:23:57;;;;;;;27.40;13.43;;;;;;;1.33;94.12;102614.38;5049711;28;20111;-75
2023/03/03 08:26:24;;;;;;;28.38;12.75;;;;;;;1.36;93.98;102611.00;5033133;28;20547;-75
2023/03/03 08:28:50;;;;;;;25.77;13.07;;;;;;;1.42;93.63;102613.91;5037415;28;20494;-75
2023/03/03 08:31:16;;;;;;;22.05;11.20;;;;;;;1.43;93.02;102620.91;5029968;28;20036;-76
2023/03/03 08:33:43;;;;;;;19.98;9.82;;;;;;;1.47;92.86;102612.38;5033285;28;20480;-75
2023/03/03 08:36:08;;;;;;;22.38;10.60;;;;;;;1.52;92.68;102630.88;5051335;28;20419;-75
2023/03/03 08:38:34;;;;;;;19.77;10.15;;;;;;;1.54;92.75;102627.50;5051850;28;20028;-75
2023/03/03 08:41:00;;;;;;;20.05;10.15;;;;;;;1.57;91.95;102632.84;5069659;28;20040;-75
2023/03/03 08:43:25;;;;;;;17.00;9.60;;;;;;;1.57;92.13;102625.00;5047020;28;20025;-75
2023/03/03 08:45:54;;;;;;;16.35;9.25;;;;;;;1.62;91.80;102636.53;5035194;28;20132;-75
2023/03/03 08:48:20;;;;;;;18.13;9.15;;;;;;;1.68;92.03;102643.75;5051287;28;20067;-75
2023/03/03 08:50:46;;;;;;;18.20;8.90;;;;;;;1.69;92.31;102633.38;5054418;28;20067;-76
2023/03/03 08:53:12;;;;;;;18.13;9.30;;;;;;;1.74;92.36;102633.56;5053058;28;20027;-76
2023/03/03 08:55:39;;;;;;;18.80;10.40;;;;;;;1.81;92.35;102637.34;5067124;28;20056;-75
2023/03/03 08:58:05;;;;;;;19.60;10.18;;;;;;;1.82;92.33;102636.50;5061101;28;20563;-75
2023/03/03 09:00:30;;;;;;;21.52;10.68;;;;;;;1.90;92.53;102641.25;5045555;28;20127;-75
2023/03/03 09:02:56;;;;;;;18.05;10.15;;;;;;;1.93;91.82;102636.16;5067071;28;20376;-76
2023/03/03 09:05:22;;;;;;;21.20;10.25;;;;;;;1.93;92.52;102638.75;5049585;28;20036;-83
2023/03/03 09:07:49;;;;;;;19.77;10.05;;;;;;;2.01;92.68;102639.09;5045046;28;20024;-83
2023/03/03 09:10:18;;;;;;;20.08;10.20;;;;;;;2.05;92.41;102646.22;5065671;28;20364;-83
2023/03/03 09:12:49;;;;;;;16.02;9.10;;;;;;;2.08;91.92;102632.41;5061450;28;20030;-83
2023/03/03 09:15:29;;;;;;;18.67;9.45;;;;;;;2.15;91.51;102640.56;5060365;28;20024;-83
2023/03/03 09:18:15;;;;;;;21.77;9.25;;;;;;;2.20;91.18;102645.06;5066609;28;20048;-83
2023/03/03 09:20:44;;;;;;;19.60;10.35;;;;;;;2.21;91.90;102639.91;5053059;28;20336;-83
2023/03/03 09:23:26;;;;;;;20.45;9.88;;;;;;;2.24;91.41;102634.81;5067039;28;20508;-83
2023/03/03 09:25:52;;;;;;;18.25;8.80;;;;;;;2.29;91.23;102645.44;5068267;28;20032;-83
2023/03/03 09:28:27;;;;;;;17.70;9.77;;;;;;;2.33;91.47;102647.38;5029334;28;20088;-83
2023/03/03 09:31:00;;;;;;;22.60;10.77;;;;;;;2.38;91.52;102642.34;5067287;28;20033;-83
2023/03/03 09:33:27;;;;;;;19.40;10.73;;;;;;;2.43;91.99;102644.28;5062603;28;20029;-83
2023/03/03 09:36:02;;;;;;;17.48;9.52;;;;;;;2.51;92.31;102647.22;5068632;28;20048;-83
2023/03/03 09:38:32;;;;;;;21.05;9.32;;;;;;;2.55;91.09;102642.19;5065211;28;20060;-83
2023/03/03 09:41:16;;;;;;;15.93;9.30;;;;;;;2.67;91.15;102653.94;5018651;28;20111;-83
2023/03/03 09:44:19;;;;;;;20.67;10.00;;;;;;;2.77;90.34;102659.63;5039781;28;20036;-83
2023/03/03 09:47:00;;;;;;;15.80;8.43;;;;;;;2.82;90.11;102656.25;5026125;28;20041;-83
2023/03/03 09:49:33;;;;;;;14.07;8.15;;;;;;;2.82;89.98;102665.03;5030328;28;20047;-83
2023/03/03 09:52:15;;;;;;;15.40;8.15;;;;;;;2.82;90.10;102659.78;5046344;28;20120;-83
2023/03/03 09:54:49;;;;;;;16.27;8.55;;;;;;;2.82;89.15;102654.56;5046550;28;20048;-83
2023/03/03 09:57:19;;;;;;;12.95;7.65;;;;;;;2.77;89.54;102654.38;5027123;28;20029;-83
2023/03/03 10:00:06;;;;;;;16.52;8.85;;;;;;;2.80;89.76;102658.84;5027467;28;20033;-81
2023/03/03 10:03:20;;;;;;;21.75;8.77;;;;;;;2.83;89.79;102658.94;5028518;28;20075;-83
2023/03/03 10:05:55;;;;;;;18.55;9.00;;;;;;;2.85;89.14;102659.03;5015516;28;20056;-83
2023/03/03 10:08:42;;;;;;;19.33;9.50;;;;;;;2.91;89.62;102657.50;5025628;28;20218;-83
2023/03/03 10:11:27;;;;;;;19.30;9.73;;;;;;;2.98;89.03;102661.28;5029785;28;20048;-83
2023/03/03 10:14:04;;;;;;;18.73;9.15;;;;;;;3.05;88.61;102663.28;5029058;28;20060;-84
2023/03/03 10:16:39;;;;;;;17.33;9.10;;;;;;;3.14;89.31;102662.72;5045482;28;20037;-83
2023/03/03 10:19:22;;;;;;;14.20;7.45;;;;;;;3.20;87.81;102669.09;5045453;28;20064;-83
2023/03/03 10:22:16;;;;;;;14.88;7.68;;;;;;;3.23;86.83;102674.44;5024625;28;20043;-83
2023/03/03 10:24:46;;;;;;;12.55;7.60;;;;;;;3.26;87.19;102660.56;5044036;28;20055;-83
2023/03/03 10:27:49;;;;;;;14.90;7.50;;;;;;;3.32;86.83;102665.19;5044329;28;20519;-83
2023/03/03 10:30:30;;;;;;;18.63;8.27;;;;;;;3.40;87.48;102663.72;4997590;28;20047;-83
2023/03/03 10:33:15;;;;;;;19.73;8.75;;;;;;;3.48;86.92;102664.00;5044922;28;20083;-83
2023/03/03 10:35:55;;;;;;;16.92;9.52;;;;;;;3.53;86.57;102663.31;5045453;28;20313;-83
2023/03/03 10:38:39;;;;;;;15.73;8.73;;;;;;;3.61;86.18;102668.84;5027086;28;20037;-83
2023/03/03 10:41:19;;;;;;;13.70;8.25;;;;;;;3.70;86.05;102671.78;5043848;28;20045;-83
2023/03/03 10:44:24;;;;;;;12.98;8.35;;;;;;;3.83;86.14;102660.94;4999868;28;20049;-83
2023/03/03 10:47:27;;;;;;;13.77;7.18;;;;;;;3.95;85.08;102657.81;4984055;28;20057;-83
2023/03/03 10:50:20;;;;;;;17.13;7.60;;;;;;;4.01;83.41;102647.56;4983037;28;20148;-83
2023/03/03 10:53:11;;;;;;;13.32;7.50;;;;;;;3.96;84.11;102657.00;4983002;28;20169;-83
2023/03/03 10:56:13;;;;;;;15.88;7.93;;;;;;;4.06;84.12;102660.81;4984698;28;20054;-83
2023/03/03 10:58:56;;;;;;;17.55;7.88;;;;;;;4.16;84.26;102657.66;4984602;28;20393;-83
2023/03/03 11:01:57;;;;;;;14.02;8.13;;;;;;;4.23;84.14;102654.41;4999546;28;20041;-83
2023/03/03 11:04:50;;;;;;;14.23;7.70;;;;;;;4.30;83.49;102650.25;5016526;28;20046;-83
2023/03/03 11:07:27;;;;;;;15.20;7.53;;;;;;;4.43;83.05;102651.56;4983678;28;20045;-83
2023/03/03 11:10:10;;;;;;;15.18;8.40;;;;;;;4.50;82.22;102656.13;4976758;28;20494;-83
2023/03/03 11:12:52;;;;;;;15.18;8.50;;;;;;;4.62;83.04;102653.91;5004163;28;20043;-83
2023/03/03 11:15:26;;;;;;;16.48;7.82;;;;;;;4.76;81.13;102653.47;4979468;28;20096;-82
2023/03/03 11:18:28;;;;;;;17.45;8.10;;;;;;;4.85;81.31;102656.38;4978230;28;20498;-83
2023/03/03 11:21:20;;;;;;;13.30;6.88;;;;;;;4.97;80.71;102651.50;4984738;28;20038;-82
2023/03/03 11:24:09;;;;;;;13.85;7.57;;;;;;;5.04;80.77;102657.81;4978572;28;20401;-83
2023/03/03 11:26:43;;;;;;;14.23;7.60;;;;;;;5.14;81.67;102645.03;4983966;28;20046;-83
2023/03/03 11:29:30;;;;;;;11.45;7.13;;;;;;;5.37;80.04;102647.41;4985387;28;20034;-83
2023/03/03 11:32:18;;;;;;;14.27;7.45;;;;;;;5.48;80.03;102632.81;4990986;28;20474;-83
2023/03/03 11:34:56;;;;;;;13.63;7.45;;;;;;;5.68;78.29;102630.75;4982431;28;20117;-83
2023/03/03 11:37:45;;;;;;;;;;;;;;;5.81;80.41;102642.47;4978724;28;20474;-83
2023/03/03 11:40:20;;;;;;;15.35;7.28;;;;;;;6.05;78.26;102630.84;5024001;28;19920;-83